createdAt,value
2022-11-26T00:00:54.597Z,0.00
2022-11-26T00:01:54.660Z,0.00
2022-11-26T00:02:54.697Z,0.00
2022-11-26T00:03:54.549Z,0.00
2022-11-26T00:04:54.585Z,0.00
2022-11-26T00:05:54.558Z,0.00
2022-11-26T00:06:54.534Z,0.00
2022-11-26T00:07:54.620Z,0.00
2022-11-26T00:08:54.499Z,0.00
2022-11-26T00:09:54.482Z,0.00
2022-11-26T00:10:54.477Z,0.00
2022-11-26T00:11:54.458Z,0.00
2022-11-26T00:12:54.451Z,0.00
2022-11-26T00:13:54.438Z,0.00
2022-11-26T00:14:54.432Z,0.00
2022-11-26T00:15:54.421Z,0.00
2022-11-26T00:16:54.489Z,0.00
2022-11-26T00:17:54.401Z,0.00
2022-11-26T00:18:54.383Z,0.00
2022-11-26T00:19:54.377Z,0.00
2022-11-26T00:20:54.398Z,0.00
2022-11-26T00:21:54.348Z,0.00
2022-11-26T00:22:54.339Z,0.00
2022-11-26T00:23:54.337Z,0.00
2022-11-26T00:24:54.333Z,0.00
2022-11-26T00:25:54.304Z,0.00
2022-11-26T00:26:54.307Z,0.00
2022-11-26T00:27:54.296Z,0.00
2022-11-26T00:28:54.278Z,0.00
2022-11-26T00:29:54.266Z,0.00
2022-11-26T00:30:54.249Z,0.00
2022-11-26T00:31:54.276Z,0.00
2022-11-26T00:32:54.234Z,0.00
2022-11-26T00:33:54.216Z,0.00
2022-11-26T00:34:54.219Z,0.00
2022-11-26T00:35:54.193Z,0.00
2022-11-26T00:36:54.218Z,0.00
2022-11-26T00:37:54.181Z,0.00
2022-11-26T00:38:54.167Z,0.00
2022-11-26T00:39:54.156Z,0.00
2022-11-26T00:40:54.139Z,0.00
2022-11-26T00:41:54.136Z,0.00
2022-11-26T00:42:58.644Z,0.00
2022-11-26T00:43:54.113Z,0.00
2022-11-26T00:44:54.095Z,0.00
2022-11-26T00:45:54.148Z,0.00
2022-11-26T00:46:54.085Z,0.00
2022-11-26T00:47:54.060Z,0.00
2022-11-26T00:48:54.060Z,0.00
2022-11-26T00:49:54.037Z,0.00
2022-11-26T00:50:54.027Z,0.00
2022-11-26T00:51:54.026Z,0.00
2022-11-26T00:52:54.051Z,0.00
2022-11-26T00:53:53.994Z,0.00
2022-11-26T00:54:53.993Z,0.00
2022-11-26T00:55:53.988Z,0.00
2022-11-26T00:56:53.971Z,0.00
2022-11-26T00:57:53.953Z,0.00
2022-11-26T00:58:53.940Z,0.00
2022-11-26T00:59:53.934Z,0.00
2022-11-26T01:00:53.980Z,0.00
2022-11-26T01:01:53.990Z,0.00
2022-11-26T01:02:53.904Z,0.00
2022-11-26T01:03:53.890Z,0.00
2022-11-26T01:04:53.878Z,0.00
2022-11-26T01:05:53.876Z,0.00
2022-11-26T01:06:53.858Z,0.00
2022-11-26T01:07:53.912Z,0.00
2022-11-26T01:08:53.859Z,0.00
2022-11-26T01:09:53.831Z,0.00
2022-11-26T01:10:53.805Z,0.00
2022-11-26T01:11:54.558Z,0.00
2022-11-26T01:12:53.783Z,0.00
2022-11-26T01:13:53.792Z,0.00
2022-11-26T01:14:53.762Z,0.00
2022-11-26T01:15:53.752Z,0.00
2022-11-26T01:16:53.810Z,0.00
2022-11-26T01:17:53.735Z,0.00
2022-11-26T01:18:53.735Z,0.00
2022-11-26T01:19:53.712Z,0.00
2022-11-26T01:20:53.696Z,0.00
2022-11-26T01:21:53.698Z,0.00
2022-11-26T01:22:53.686Z,0.00
2022-11-26T01:23:53.663Z,0.00
2022-11-26T01:24:53.681Z,0.00
2022-11-26T01:25:53.650Z,0.00
2022-11-26T01:26:53.629Z,0.00
2022-11-26T01:27:53.628Z,0.00
2022-11-26T01:28:53.609Z,0.00
2022-11-26T01:29:53.601Z,0.00
2022-11-26T01:30:53.591Z,0.00
2022-11-26T01:31:53.704Z,0.00
2022-11-26T01:32:53.576Z,0.00
2022-11-26T01:33:53.553Z,0.00
2022-11-26T01:34:53.540Z,0.00
2022-11-26T01:35:53.536Z,0.00
2022-11-26T01:36:53.525Z,0.00
2022-11-26T01:37:53.513Z,0.00
2022-11-26T01:38:53.506Z,0.00
2022-11-26T01:39:53.492Z,0.00
2022-11-26T01:40:53.501Z,0.00
2022-11-26T01:41:53.478Z,0.00
2022-11-26T01:42:53.451Z,0.00
2022-11-26T01:43:53.448Z,0.00
2022-11-26T01:44:53.437Z,0.00
2022-11-26T01:45:53.464Z,0.00
2022-11-26T01:46:53.409Z,0.00
2022-11-26T01:47:53.409Z,0.00
2022-11-26T01:48:53.402Z,0.00
2022-11-26T01:49:53.382Z,0.00
2022-11-26T01:50:53.368Z,0.00
2022-11-26T01:51:53.353Z,0.00
2022-11-26T01:52:53.345Z,0.00
2022-11-26T01:53:53.329Z,0.00
2022-11-26T01:54:53.327Z,0.00
2022-11-26T01:55:53.317Z,0.00
2022-11-26T01:56:53.330Z,0.00
2022-11-26T01:57:53.294Z,0.00
2022-11-26T01:58:53.279Z,0.00
2022-11-26T01:59:53.265Z,0.00
2022-11-26T02:00:53.269Z,0.00
2022-11-26T02:01:53.284Z,0.00
2022-11-26T02:02:53.237Z,0.00
2022-11-26T02:03:53.227Z,0.00
2022-11-26T02:04:53.215Z,0.00
2022-11-26T02:05:53.196Z,0.00
2022-11-26T02:06:53.196Z,0.00
2022-11-26T02:07:53.243Z,0.00
2022-11-26T02:08:53.174Z,0.00
2022-11-26T02:09:53.162Z,0.00
2022-11-26T02:10:53.142Z,0.00
2022-11-26T02:11:53.135Z,0.00
2022-11-26T02:12:53.148Z,0.00
2022-11-26T02:13:53.114Z,0.00
2022-11-26T02:14:53.102Z,0.00
2022-11-26T02:15:53.094Z,0.00
2022-11-26T02:16:53.190Z,0.00
2022-11-26T02:17:53.071Z,0.00
2022-11-26T02:18:53.152Z,0.00
2022-11-26T02:19:53.042Z,0.00
2022-11-26T02:20:53.084Z,0.00
2022-11-26T02:21:53.026Z,0.00
2022-11-26T02:22:53.009Z,0.00
2022-11-26T02:23:53.007Z,0.00
2022-11-26T02:24:52.995Z,0.00
2022-11-26T02:25:52.983Z,0.00
2022-11-26T02:26:52.970Z,0.00
2022-11-26T02:27:52.964Z,0.00
2022-11-26T02:28:52.973Z,0.00
2022-11-26T02:29:52.937Z,0.00
2022-11-26T02:30:52.928Z,0.00
2022-11-26T02:31:53.007Z,0.00
2022-11-26T02:32:52.908Z,0.00
2022-11-26T02:33:52.892Z,0.00
2022-11-26T02:34:52.883Z,0.00
2022-11-26T02:35:52.865Z,0.00
2022-11-26T02:36:52.859Z,0.00
2022-11-26T02:37:52.842Z,0.00
2022-11-26T02:38:52.835Z,0.00
2022-11-26T02:39:52.860Z,0.00
2022-11-26T02:40:52.815Z,0.00
2022-11-26T02:41:52.798Z,0.00
2022-11-26T02:42:52.801Z,0.00
2022-11-26T02:43:52.781Z,0.00
2022-11-26T02:44:52.799Z,0.00
2022-11-26T02:45:52.828Z,0.00
2022-11-26T02:46:52.743Z,0.00
2022-11-26T02:47:52.738Z,0.00
2022-11-26T02:48:52.735Z,0.00
2022-11-26T02:49:52.725Z,0.00
2022-11-26T02:50:52.698Z,0.00
2022-11-26T02:51:52.695Z,0.00
2022-11-26T02:52:52.676Z,0.00
2022-11-26T02:53:52.666Z,0.00
2022-11-26T02:54:52.661Z,0.00
2022-11-26T02:55:52.649Z,0.00
2022-11-26T02:56:52.646Z,0.00
2022-11-26T02:57:52.635Z,0.00
2022-11-26T02:58:52.609Z,0.00
2022-11-26T02:59:52.611Z,0.00
2022-11-26T03:00:52.668Z,0.00
2022-11-26T03:01:52.591Z,0.00
2022-11-26T03:02:52.571Z,0.00
2022-11-26T03:03:52.606Z,0.00
2022-11-26T03:04:52.542Z,0.00
2022-11-26T03:05:52.538Z,0.00
2022-11-26T03:06:52.522Z,0.00
2022-11-26T03:07:52.639Z,0.00
2022-11-26T03:08:52.499Z,0.00
2022-11-26T03:09:52.492Z,0.00
2022-11-26T03:10:52.480Z,0.00
2022-11-26T03:11:52.514Z,0.00
2022-11-26T03:12:52.456Z,0.00
2022-11-26T03:13:52.447Z,0.00
2022-11-26T03:14:52.433Z,0.00
2022-11-26T03:15:52.429Z,0.00
2022-11-26T03:16:52.493Z,0.00
2022-11-26T03:17:52.399Z,0.00
2022-11-26T03:18:52.390Z,0.00
2022-11-26T03:19:52.375Z,0.00
2022-11-26T03:20:52.741Z,0.00
2022-11-26T03:21:52.361Z,0.00
2022-11-26T03:22:52.354Z,0.00
2022-11-26T03:23:52.332Z,0.00
2022-11-26T03:24:52.320Z,0.00
2022-11-26T03:25:52.316Z,0.00
2022-11-26T03:26:52.298Z,0.00
2022-11-26T03:27:52.298Z,0.00
2022-11-26T03:28:52.275Z,0.00
2022-11-26T03:29:52.274Z,0.00
2022-11-26T03:30:52.258Z,0.00
2022-11-26T03:31:52.396Z,0.00
2022-11-26T03:32:52.254Z,0.00
2022-11-26T03:33:52.227Z,0.00
2022-11-26T03:34:52.218Z,0.00
2022-11-26T03:35:52.198Z,0.00
2022-11-26T03:36:52.193Z,0.00
2022-11-26T03:37:52.176Z,0.00
2022-11-26T03:38:52.172Z,0.00
2022-11-26T03:39:52.161Z,0.00
2022-11-26T03:40:52.154Z,0.00
2022-11-26T03:41:52.131Z,0.00
2022-11-26T03:42:52.128Z,0.00
2022-11-26T03:43:52.117Z,0.00
2022-11-26T03:44:52.098Z,0.00
2022-11-26T03:45:52.208Z,0.00
2022-11-26T03:46:52.079Z,0.00
2022-11-26T03:47:52.084Z,0.00
2022-11-26T03:48:52.080Z,0.00
2022-11-26T03:49:52.050Z,0.00
2022-11-26T03:50:52.036Z,0.00
2022-11-26T03:51:52.031Z,0.00
2022-11-26T03:52:52.009Z,0.00
2022-11-26T03:53:52.009Z,0.00
2022-11-26T03:54:51.999Z,0.00
2022-11-26T03:55:51.975Z,0.00
2022-11-26T03:56:51.971Z,0.00
2022-11-26T03:57:51.952Z,0.00
2022-11-26T03:58:51.949Z,0.00
2022-11-26T03:59:51.939Z,0.00
2022-11-26T04:00:51.929Z,0.00
2022-11-26T04:01:51.978Z,0.00
2022-11-26T04:02:51.959Z,0.00
2022-11-26T04:03:51.891Z,0.00
2022-11-26T04:04:51.899Z,0.00
2022-11-26T04:05:51.869Z,0.00
2022-11-26T04:06:51.852Z,0.00
2022-11-26T04:07:51.942Z,0.00
2022-11-26T04:08:51.837Z,0.00
2022-11-26T04:09:51.820Z,0.00
2022-11-26T04:10:51.815Z,0.00
2022-11-26T04:11:51.804Z,0.00
2022-11-26T04:12:51.793Z,0.00
2022-11-26T04:13:51.781Z,0.00
2022-11-26T04:14:51.773Z,0.00
2022-11-26T04:15:51.768Z,0.00
2022-11-26T04:16:51.793Z,0.00
2022-11-26T04:17:51.730Z,0.00
2022-11-26T04:18:51.735Z,0.00
2022-11-26T04:19:51.716Z,0.00
2022-11-26T04:20:53.403Z,0.00
2022-11-26T04:21:51.686Z,0.00
2022-11-26T04:22:51.684Z,0.00
2022-11-26T04:23:51.677Z,0.00
2022-11-26T04:24:51.659Z,0.00
2022-11-26T04:25:51.646Z,0.00
2022-11-26T04:26:51.650Z,0.00
2022-11-26T04:27:51.626Z,0.00
2022-11-26T04:28:51.617Z,0.00
2022-11-26T04:29:51.606Z,0.00
2022-11-26T04:30:51.586Z,0.00
2022-11-26T04:31:51.647Z,0.00
2022-11-26T04:32:51.569Z,0.00
2022-11-26T04:33:51.575Z,0.00
2022-11-26T04:34:51.543Z,0.00
2022-11-26T04:35:51.534Z,0.00
2022-11-26T04:36:51.550Z,0.00
2022-11-26T04:37:51.517Z,0.00
2022-11-26T04:38:51.501Z,0.00
2022-11-26T04:39:51.490Z,0.00
2022-11-26T04:40:51.488Z,0.00
2022-11-26T04:41:51.480Z,0.00
2022-11-26T04:42:51.464Z,0.00
2022-11-26T04:43:51.454Z,0.00
2022-11-26T04:44:51.448Z,0.00
2022-11-26T04:45:51.535Z,0.00
2022-11-26T04:46:51.410Z,0.00
2022-11-26T04:47:51.399Z,0.00
2022-11-26T04:48:51.391Z,0.00
2022-11-26T04:49:51.476Z,0.00
2022-11-26T04:50:51.370Z,0.00
2022-11-26T04:51:51.361Z,0.00
2022-11-26T04:52:51.375Z,0.00
2022-11-26T04:53:55.452Z,0.00
2022-11-26T04:54:51.327Z,0.00
2022-11-26T04:55:51.312Z,0.00
2022-11-26T04:56:51.298Z,0.00
2022-11-26T04:57:51.288Z,0.00
2022-11-26T04:58:51.286Z,0.00
2022-11-26T04:59:51.273Z,0.00
2022-11-26T05:00:51.646Z,0.00
2022-11-26T05:01:51.243Z,0.00
2022-11-26T05:02:51.294Z,0.00
2022-11-26T05:03:51.226Z,0.00
2022-11-26T05:04:51.226Z,0.00
2022-11-26T05:05:51.201Z,0.00
2022-11-26T05:06:51.193Z,0.00
2022-11-26T05:07:51.274Z,0.00
2022-11-26T05:08:51.198Z,0.00
2022-11-26T05:09:51.154Z,0.00
2022-11-26T05:10:51.144Z,0.00
2022-11-26T05:11:51.152Z,0.00
2022-11-26T05:12:51.127Z,0.00
2022-11-26T05:13:51.122Z,0.00
2022-11-26T05:14:51.100Z,0.00
2022-11-26T05:15:51.092Z,0.00
2022-11-26T05:16:51.161Z,0.00
2022-11-26T05:17:51.073Z,0.00
2022-11-26T05:18:51.070Z,0.00
2022-11-26T05:19:51.046Z,0.00
2022-11-26T05:20:51.040Z,0.00
2022-11-26T05:21:51.022Z,0.00
2022-11-26T05:22:51.014Z,0.00
2022-11-26T05:23:51.000Z,0.00
2022-11-26T05:24:51.018Z,0.00
2022-11-26T05:25:50.982Z,0.00
2022-11-26T05:26:56.444Z,0.00
2022-11-26T05:27:50.960Z,0.00
2022-11-26T05:28:50.953Z,0.00
2022-11-26T05:29:50.935Z,0.00
2022-11-26T05:30:50.929Z,0.00
2022-11-26T05:31:50.999Z,0.00
2022-11-26T05:32:50.909Z,0.00
2022-11-26T05:33:50.896Z,0.00
2022-11-26T05:34:53.387Z,0.00
2022-11-26T05:35:50.870Z,0.00
2022-11-26T05:36:50.863Z,0.00
2022-11-26T05:37:50.847Z,0.00
2022-11-26T05:38:50.846Z,0.00
2022-11-26T05:39:50.835Z,0.00
2022-11-26T05:40:50.834Z,0.00
2022-11-26T05:41:50.803Z,0.00
2022-11-26T05:42:50.790Z,0.00
2022-11-26T05:43:50.784Z,0.00
2022-11-26T05:44:50.774Z,0.00
2022-11-26T05:45:50.834Z,0.00
2022-11-26T05:46:50.748Z,0.00
2022-11-26T05:47:50.734Z,0.00
2022-11-26T05:48:50.733Z,0.00
2022-11-26T05:49:50.715Z,0.00
2022-11-26T05:50:54.451Z,0.00
2022-11-26T05:51:50.698Z,0.00
2022-11-26T05:52:50.687Z,0.00
2022-11-26T05:53:50.674Z,0.00
2022-11-26T05:54:50.663Z,0.00
2022-11-26T05:55:50.651Z,0.00
2022-11-26T05:56:54.218Z,0.00
2022-11-26T05:57:50.634Z,0.00
2022-11-26T05:58:50.620Z,0.00
2022-11-26T05:59:50.604Z,0.00
2022-11-26T06:00:50.593Z,0.00
2022-11-26T06:01:50.613Z,0.00
2022-11-26T06:02:50.771Z,0.00
2022-11-26T06:03:50.636Z,0.00
2022-11-26T06:04:50.553Z,0.00
2022-11-26T06:05:50.542Z,0.00
2022-11-26T06:06:50.526Z,0.00
2022-11-26T06:07:50.592Z,0.00
2022-11-26T06:08:50.510Z,0.00
2022-11-26T06:09:50.504Z,0.00
2022-11-26T06:10:50.488Z,0.00
2022-11-26T06:11:50.476Z,0.00
2022-11-26T06:12:50.496Z,0.00
2022-11-26T06:13:50.455Z,0.00
2022-11-26T06:14:50.448Z,0.00
2022-11-26T06:15:50.432Z,0.00
2022-11-26T06:16:50.436Z,0.00
2022-11-26T06:17:50.408Z,0.00
2022-11-26T06:18:50.399Z,0.00
2022-11-26T06:19:50.382Z,0.00
2022-11-26T06:20:50.374Z,0.00
2022-11-26T06:21:50.369Z,4.00
2022-11-26T06:22:50.353Z,4.00
2022-11-26T06:23:57.665Z,4.00
2022-11-26T06:24:50.323Z,4.00
2022-11-26T06:25:50.322Z,4.00
2022-11-26T06:26:50.311Z,4.00
2022-11-26T06:27:50.299Z,4.00
2022-11-26T06:28:50.412Z,4.00
2022-11-26T06:29:50.268Z,4.00
2022-11-26T06:30:52.260Z,4.00
2022-11-26T06:31:50.354Z,0.00
2022-11-26T06:32:50.243Z,4.00
2022-11-26T06:33:50.232Z,0.00
2022-11-26T06:34:54.013Z,4.00
2022-11-26T06:35:50.202Z,4.00
2022-11-26T06:36:50.198Z,4.00
2022-11-26T06:37:50.186Z,4.00
2022-11-26T06:38:50.175Z,4.00
2022-11-26T06:39:50.164Z,8.00
2022-11-26T06:40:50.147Z,8.00
2022-11-26T06:41:50.142Z,12.00
2022-11-26T06:42:50.127Z,8.00
2022-11-26T06:43:50.124Z,12.00
2022-11-26T06:44:50.133Z,8.00
2022-11-26T06:45:50.155Z,12.00
2022-11-26T06:46:50.084Z,12.00
2022-11-26T06:47:50.077Z,12.00
2022-11-26T06:48:50.067Z,16.00
2022-11-26T06:49:52.048Z,16.00
2022-11-26T06:50:50.042Z,20.00
2022-11-26T06:51:50.027Z,32.00
2022-11-26T06:52:50.024Z,36.00
2022-11-26T06:53:52.008Z,32.00
2022-11-26T06:54:49.998Z,28.00
2022-11-26T06:55:49.980Z,32.00
2022-11-26T06:56:51.983Z,36.00
2022-11-26T06:57:49.965Z,36.00
2022-11-26T06:58:49.952Z,44.00
2022-11-26T06:59:51.961Z,36.00
2022-11-26T07:00:49.932Z,44.00
2022-11-26T07:01:52.074Z,36.00
2022-11-26T07:02:50.023Z,40.00
2022-11-26T07:03:49.892Z,40.00
2022-11-26T07:04:49.886Z,40.00
2022-11-26T07:05:51.872Z,40.00
2022-11-26T07:06:49.865Z,44.00
2022-11-26T07:07:49.904Z,40.00
2022-11-26T07:08:49.855Z,40.00
2022-11-26T07:09:49.824Z,40.00
2022-11-26T07:10:49.813Z,40.00
2022-11-26T07:11:49.810Z,36.00
2022-11-26T07:12:49.795Z,40.00
2022-11-26T07:13:49.786Z,44.00
2022-11-26T07:14:49.775Z,44.00
2022-11-26T07:15:51.825Z,44.00
2022-11-26T07:16:49.753Z,48.00
2022-11-26T07:17:49.744Z,48.00
2022-11-26T07:18:49.734Z,44.00
2022-11-26T07:19:49.722Z,48.00
2022-11-26T07:20:49.709Z,52.00
2022-11-26T07:21:51.701Z,60.00
2022-11-26T07:22:49.690Z,64.00
2022-11-26T07:23:51.683Z,68.00
2022-11-26T07:24:49.657Z,68.00
2022-11-26T07:25:51.645Z,68.00
2022-11-26T07:26:49.635Z,60.00
2022-11-26T07:27:51.625Z,68.00
2022-11-26T07:28:49.616Z,72.00
2022-11-26T07:29:49.603Z,76.00
2022-11-26T07:30:49.598Z,108.00
2022-11-26T07:31:51.695Z,124.00
2022-11-26T07:32:49.570Z,144.00
2022-11-26T07:33:49.560Z,128.00
2022-11-26T07:34:49.548Z,116.00
2022-11-26T07:35:49.540Z,144.00
2022-11-26T07:36:49.658Z,160.00
2022-11-26T07:37:49.520Z,220.00
2022-11-26T07:38:49.609Z,216.00
2022-11-26T07:39:49.500Z,264.00
2022-11-26T07:40:49.481Z,252.00
2022-11-26T07:41:49.471Z,220.00
2022-11-26T07:42:53.156Z,204.00
2022-11-26T07:43:49.448Z,220.00
2022-11-26T07:44:49.443Z,232.00
2022-11-26T07:45:49.475Z,212.00
2022-11-26T07:46:49.416Z,216.00
2022-11-26T07:47:49.435Z,232.00
2022-11-26T07:48:49.399Z,260.00
2022-11-26T07:49:49.382Z,256.00
2022-11-26T07:50:49.376Z,208.00
2022-11-26T07:51:49.368Z,244.00
2022-11-26T07:52:49.360Z,256.00
2022-11-26T07:53:49.345Z,264.00
2022-11-26T07:54:49.332Z,280.00
2022-11-26T07:55:49.323Z,280.00
2022-11-26T07:56:49.303Z,312.00
2022-11-26T07:57:49.294Z,308.00
2022-11-26T07:58:49.282Z,308.00
2022-11-26T07:59:49.278Z,292.00
2022-11-26T08:00:54.292Z,268.00
2022-11-26T08:01:49.319Z,260.00
2022-11-26T08:02:49.304Z,312.00
2022-11-26T08:03:49.270Z,348.00
2022-11-26T08:04:49.220Z,352.00
2022-11-26T08:05:49.211Z,372.00
2022-11-26T08:06:49.217Z,384.00
2022-11-26T08:07:49.264Z,396.00
2022-11-26T08:08:49.185Z,368.00
2022-11-26T08:09:49.159Z,384.00
2022-11-26T08:10:49.168Z,360.00
2022-11-26T08:11:49.139Z,324.00
2022-11-26T08:12:49.133Z,328.00
2022-11-26T08:13:49.120Z,336.00
2022-11-26T08:14:49.109Z,444.00
2022-11-26T08:15:49.095Z,468.00
2022-11-26T08:16:49.195Z,412.00
2022-11-26T08:17:49.073Z,384.00
2022-11-26T08:18:49.062Z,396.00
2022-11-26T08:19:49.087Z,396.00
2022-11-26T08:20:49.040Z,380.00
2022-11-26T08:21:49.048Z,428.00
2022-11-26T08:22:49.022Z,392.00
2022-11-26T08:23:49.024Z,420.00
2022-11-26T08:24:48.994Z,388.00
2022-11-26T08:26:14.092Z,356.00
2022-11-26T08:26:48.985Z,312.00
2022-11-26T08:27:48.961Z,296.00
2022-11-26T08:28:48.960Z,364.00
2022-11-26T08:29:48.943Z,364.00
2022-11-26T08:30:48.936Z,332.00
2022-11-26T08:31:48.972Z,428.00
2022-11-26T08:32:48.917Z,472.00
2022-11-26T08:33:48.899Z,468.00
2022-11-26T08:34:48.902Z,444.00
2022-11-26T08:36:06.215Z,476.00
2022-11-26T08:36:48.866Z,508.00
2022-11-26T08:37:48.849Z,440.00
2022-11-26T08:38:48.855Z,360.00
2022-11-26T08:39:48.835Z,372.00
2022-11-26T08:40:48.822Z,396.00
2022-11-26T08:41:52.417Z,352.00
2022-11-26T08:42:48.794Z,336.00
2022-11-26T08:44:06.217Z,404.00
2022-11-26T08:44:48.772Z,316.00
2022-11-26T08:45:48.787Z,308.00
2022-11-26T08:46:48.754Z,344.00
2022-11-26T08:47:48.739Z,316.00
2022-11-26T08:48:48.732Z,372.00
2022-11-26T08:49:48.715Z,372.00
2022-11-26T08:50:48.704Z,348.00
2022-11-26T08:51:48.726Z,424.00
2022-11-26T08:52:48.681Z,436.00
2022-11-26T08:53:48.676Z,408.00
2022-11-26T08:54:49.060Z,428.00
2022-11-26T08:56:00.128Z,420.00
2022-11-26T08:56:48.637Z,444.00
2022-11-26T08:57:48.632Z,464.00
2022-11-26T08:58:48.800Z,444.00
2022-11-26T08:59:48.609Z,380.00
2022-11-26T09:00:48.597Z,384.00
2022-11-26T09:01:48.616Z,424.00
2022-11-26T09:02:48.628Z,452.00
2022-11-26T09:03:48.562Z,416.00
2022-11-26T09:04:48.546Z,516.00
2022-11-26T09:05:48.542Z,572.00
2022-11-26T09:06:48.528Z,596.00
2022-11-26T09:07:49.143Z,468.00
2022-11-26T09:08:48.515Z,428.00
2022-11-26T09:09:48.498Z,524.00
2022-11-26T09:10:48.483Z,636.00
2022-11-26T09:11:48.473Z,716.00
2022-11-26T09:12:48.458Z,616.00
2022-11-26T09:13:48.453Z,592.00
2022-11-26T09:14:48.502Z,592.00
2022-11-26T09:15:48.423Z,536.00
2022-11-26T09:16:48.471Z,592.00
2022-11-26T09:17:48.412Z,656.00
2022-11-26T09:18:48.387Z,588.00
2022-11-26T09:19:48.379Z,624.00
2022-11-26T09:20:50.770Z,644.00
2022-11-26T09:21:48.355Z,592.00
2022-11-26T09:22:48.349Z,624.00
2022-11-26T09:23:48.364Z,636.00
2022-11-26T09:24:48.320Z,672.00
2022-11-26T09:25:48.314Z,664.00
2022-11-26T09:26:48.416Z,640.00
2022-11-26T09:27:48.292Z,684.00
2022-11-26T09:28:48.287Z,684.00
2022-11-26T09:29:48.271Z,684.00
2022-11-26T09:30:48.252Z,656.00
2022-11-26T09:32:22.037Z,588.00
2022-11-26T09:32:48.304Z,512.00
2022-11-26T09:33:48.224Z,472.00
2022-11-26T09:34:48.206Z,352.00
2022-11-26T09:35:48.205Z,300.00
2022-11-26T09:36:48.192Z,308.00
2022-11-26T09:37:51.605Z,344.00
2022-11-26T09:38:48.172Z,332.00
2022-11-26T09:39:48.177Z,340.00
2022-11-26T09:40:48.137Z,352.00
2022-11-26T09:41:48.132Z,460.00
2022-11-26T09:42:48.126Z,408.00
2022-11-26T09:43:50.577Z,340.00
2022-11-26T09:44:48.093Z,336.00
2022-11-26T09:45:48.189Z,420.00
2022-11-26T09:47:10.343Z,488.00
2022-11-26T09:47:48.063Z,520.00
2022-11-26T09:48:48.056Z,532.00
2022-11-26T09:49:48.036Z,496.00
2022-11-26T09:50:48.036Z,528.00
2022-11-26T09:51:48.021Z,540.00
2022-11-26T09:52:48.008Z,460.00
2022-11-26T09:53:47.992Z,452.00
2022-11-26T09:54:47.994Z,400.00
2022-11-26T09:55:47.993Z,416.00
2022-11-26T09:56:47.964Z,356.00
2022-11-26T09:57:47.953Z,320.00
2022-11-26T09:58:47.940Z,340.00
2022-11-26T09:59:47.928Z,388.00
2022-11-26T10:00:47.956Z,356.00
2022-11-26T10:01:47.952Z,408.00
2022-11-26T10:02:47.890Z,496.00
2022-11-26T10:03:47.882Z,580.00
2022-11-26T10:04:47.868Z,548.00
2022-11-26T10:05:47.867Z,584.00
2022-11-26T10:06:47.861Z,616.00
2022-11-26T10:07:47.969Z,552.00
2022-11-26T10:08:47.830Z,568.00
2022-11-26T10:09:47.812Z,556.00
2022-11-26T10:10:47.810Z,508.00
2022-11-26T10:11:47.826Z,456.00
2022-11-26T10:13:16.853Z,492.00
2022-11-26T10:13:47.774Z,568.00
2022-11-26T10:14:47.756Z,556.00
2022-11-26T10:15:47.744Z,472.00
2022-11-26T10:16:47.853Z,464.00
2022-11-26T10:17:47.723Z,520.00
2022-11-26T10:18:47.714Z,668.00
2022-11-26T10:19:47.700Z,684.00
2022-11-26T10:20:47.687Z,608.00
2022-11-26T10:22:02.252Z,612.00
2022-11-26T10:22:51.536Z,732.00
2022-11-26T10:23:47.667Z,680.00
2022-11-26T10:24:47.656Z,612.00
2022-11-26T10:25:47.646Z,652.00
2022-11-26T10:26:47.620Z,616.00
2022-11-26T10:27:47.652Z,588.00
2022-11-26T10:28:47.606Z,664.00
2022-11-26T10:29:47.598Z,668.00
2022-11-26T10:30:47.582Z,648.00
2022-11-26T10:31:47.731Z,600.00
2022-11-26T10:32:47.577Z,564.00
2022-11-26T10:33:47.576Z,568.00
2022-11-26T10:34:47.531Z,696.00
2022-11-26T10:35:47.538Z,692.00
2022-11-26T10:36:47.519Z,696.00
2022-11-26T10:37:47.504Z,660.00
2022-11-26T10:38:47.489Z,568.00
2022-11-26T10:39:47.476Z,596.00
2022-11-26T10:40:47.468Z,616.00
2022-11-26T10:41:47.459Z,600.00
2022-11-26T10:42:47.452Z,624.00
2022-11-26T10:43:47.459Z,524.00
2022-11-26T10:44:47.416Z,648.00
2022-11-26T10:45:47.421Z,628.00
2022-11-26T10:46:47.504Z,552.00
2022-11-26T10:47:47.396Z,528.00
2022-11-26T10:48:47.372Z,500.00
2022-11-26T10:49:47.367Z,452.00
2022-11-26T10:50:48.192Z,416.00
2022-11-26T10:51:47.344Z,428.00
2022-11-26T10:52:47.335Z,396.00
2022-11-26T10:53:47.321Z,348.00
2022-11-26T10:54:47.309Z,316.00
2022-11-26T10:55:47.292Z,336.00
2022-11-26T10:56:47.289Z,288.00
2022-11-26T10:57:47.272Z,308.00
2022-11-26T10:58:47.265Z,332.00
2022-11-26T10:59:47.306Z,360.00
2022-11-26T11:00:47.283Z,260.00
2022-11-26T11:01:50.182Z,248.00
2022-11-26T11:02:47.221Z,268.00
2022-11-26T11:04:12.827Z,256.00
2022-11-26T11:04:47.521Z,248.00
2022-11-26T11:05:47.193Z,276.00
2022-11-26T11:06:47.174Z,312.00
2022-11-26T11:07:47.282Z,280.00
2022-11-26T11:08:47.145Z,316.00
2022-11-26T11:09:47.140Z,376.00
2022-11-26T11:10:47.130Z,348.00
2022-11-26T11:11:47.117Z,424.00
2022-11-26T11:12:47.100Z,472.00
2022-11-26T11:13:47.100Z,448.00
2022-11-26T11:14:47.561Z,468.00
2022-11-26T11:15:47.099Z,476.00
2022-11-26T11:16:47.101Z,484.00
2022-11-26T11:17:47.049Z,464.00
2022-11-26T11:18:47.043Z,464.00
2022-11-26T11:19:47.022Z,496.00
2022-11-26T11:20:47.017Z,576.00
2022-11-26T11:21:48.483Z,588.00
2022-11-26T11:22:47.000Z,592.00
2022-11-26T11:24:07.776Z,632.00
2022-11-26T11:24:46.963Z,692.00
2022-11-26T11:25:46.960Z,664.00
2022-11-26T11:26:46.942Z,612.00
2022-11-26T11:27:46.940Z,608.00
2022-11-26T11:28:46.925Z,616.00
2022-11-26T11:29:46.908Z,544.00
2022-11-26T11:30:46.906Z,504.00
2022-11-26T11:31:47.008Z,460.00
2022-11-26T11:32:46.874Z,448.00
2022-11-26T11:33:46.873Z,524.00
2022-11-26T11:34:46.865Z,448.00
2022-11-26T11:35:46.846Z,484.00
2022-11-26T11:36:46.829Z,472.00
2022-11-26T11:37:46.816Z,532.00
2022-11-26T11:38:46.812Z,556.00
2022-11-26T11:39:46.803Z,564.00
2022-11-26T11:40:46.798Z,460.00
2022-11-26T11:41:46.771Z,448.00
2022-11-26T11:42:46.767Z,504.00
2022-11-26T11:43:46.758Z,560.00
2022-11-26T11:44:46.744Z,596.00
2022-11-26T11:45:52.792Z,592.00
2022-11-26T11:46:46.725Z,588.00
2022-11-26T11:47:46.738Z,584.00
2022-11-26T11:48:46.716Z,564.00
2022-11-26T11:49:46.693Z,612.00
2022-11-26T11:50:46.684Z,616.00
2022-11-26T11:51:46.657Z,624.00
2022-11-26T11:52:46.650Z,612.00
2022-11-26T11:53:46.635Z,608.00
2022-11-26T11:54:46.631Z,576.00
2022-11-26T11:55:46.625Z,620.00
2022-11-26T11:56:46.607Z,572.00
2022-11-26T11:57:46.594Z,596.00
2022-11-26T11:58:46.587Z,660.00
2022-11-26T11:59:46.578Z,668.00
2022-11-26T12:00:46.561Z,604.00
2022-11-26T12:01:46.604Z,604.00
2022-11-26T12:02:46.535Z,672.00
2022-11-26T12:03:46.551Z,656.00
2022-11-26T12:04:46.626Z,720.00
2022-11-26T12:05:46.499Z,724.00
2022-11-26T12:06:46.505Z,620.00
2022-11-26T12:07:46.597Z,604.00
2022-11-26T12:08:46.463Z,596.00
2022-11-26T12:09:46.461Z,596.00
2022-11-26T12:10:46.444Z,560.00
2022-11-26T12:11:46.439Z,532.00
2022-11-26T12:12:46.419Z,580.00
2022-11-26T12:13:46.417Z,636.00
2022-11-26T12:14:46.557Z,624.00
2022-11-26T12:15:46.395Z,656.00
2022-11-26T12:16:46.457Z,580.00
2022-11-26T12:17:46.364Z,568.00
2022-11-26T12:18:46.371Z,672.00
2022-11-26T12:19:46.370Z,784.00
2022-11-26T12:20:46.340Z,612.00
2022-11-26T12:21:46.325Z,516.00
2022-11-26T12:22:46.313Z,572.00
2022-11-26T12:23:46.308Z,620.00
2022-11-26T12:24:46.290Z,576.00
2022-11-26T12:25:46.279Z,456.00
2022-11-26T12:26:46.265Z,472.00
2022-11-26T12:27:46.249Z,532.00
2022-11-26T12:28:51.162Z,464.00
2022-11-26T12:29:46.235Z,524.00
2022-11-26T12:30:46.226Z,668.00
2022-11-26T12:31:46.285Z,536.00
2022-11-26T12:32:46.200Z,472.00
2022-11-26T12:33:46.188Z,516.00
2022-11-26T12:34:46.175Z,516.00
2022-11-26T12:35:46.181Z,456.00
2022-11-26T12:36:46.146Z,464.00
2022-11-26T12:37:46.147Z,564.00
2022-11-26T12:38:46.125Z,476.00
2022-11-26T12:39:52.031Z,444.00
2022-11-26T12:40:46.110Z,512.00
2022-11-26T12:41:46.094Z,492.00
2022-11-26T12:42:46.079Z,472.00
2022-11-26T12:43:46.081Z,496.00
2022-11-26T12:44:46.057Z,648.00
2022-11-26T12:45:46.108Z,620.00
2022-11-26T12:46:46.040Z,564.00
2022-11-26T12:47:46.023Z,484.00
2022-11-26T12:48:46.011Z,412.00
2022-11-26T12:49:46.011Z,424.00
2022-11-26T12:50:45.998Z,500.00
2022-11-26T12:51:46.001Z,504.00
2022-11-26T12:52:45.971Z,528.00
2022-11-26T12:53:45.966Z,460.00
2022-11-26T12:54:45.958Z,432.00
2022-11-26T12:55:45.945Z,516.00